Time;durP1;ratioP1;P1;durP2;ratioP2;P2;SDS_P1;SDS_P2;PMS_P1;PMS_P2;Temp;Humidity;BMP_temperature;BMP_pressure;BME280_temperature;BME280_humidity;BME280_pressure;Samples;Min_cycle;Max_cycle;Signal;HPM_P1;HPM_P2
2021/11/21 00:01:05;;;;;;;4.67;2.40;;;;;;;9.10;76.89;101102.51;1964795;73;21540;-62
2021/11/21 00:03:34;;;;;;;7.05;2.67;;;;;;;9.07;76.89;101112.20;1964774;73;21028;-62
2021/11/21 00:06:03;;;;;;;6.03;2.35;;;;;;;9.03;76.88;101113.62;1964798;73;21024;-62
2021/11/21 00:08:32;;;;;;;6.60;2.62;;;;;;;9.00;76.91;101121.56;1964775;73;21157;-62
2021/11/21 00:11:00;;;;;;;7.80;2.95;;;;;;;8.96;76.88;101122.55;1964805;73;21447;-62
2021/11/21 00:13:29;;;;;;;4.97;2.33;;;;;;;8.94;76.90;101125.67;1964718;73;21540;-62
2021/11/21 00:16:00;;;;;;;5.47;2.35;;;;;;;8.90;76.85;101124.89;1964623;73;21145;-62
2021/11/21 00:18:29;;;;;;;8.38;2.17;;;;;;;8.85;76.81;101128.08;1964875;73;21028;-61
2021/11/21 00:20:58;;;;;;;5.53;2.17;;;;;;;8.80;76.81;101137.41;1964851;73;21036;-62
2021/11/21 00:23:26;;;;;;;6.83;2.50;;;;;;;8.76;76.82;101141.02;1964720;73;21012;-61
2021/11/21 00:25:55;;;;;;;8.05;3.27;;;;;;;8.74;76.87;101139.31;1964764;73;21107;-62
2021/11/21 00:28:24;;;;;;;6.42;2.65;;;;;;;8.69;76.86;101145.55;1964836;73;21031;-62
2021/11/21 00:30:53;;;;;;;6.65;2.33;;;;;;;8.69;76.86;101143.38;1964716;73;21615;-61
2021/11/21 00:33:22;;;;;;;4.97;2.27;;;;;;;8.68;76.77;101150.38;1964885;73;21093;-61
2021/11/21 00:35:51;;;;;;;4.80;2.00;;;;;;;8.65;76.69;101152.20;1964834;73;21098;-61
2021/11/21 00:38:20;;;;;;;7.80;2.42;;;;;;;8.62;76.66;101158.86;1964773;73;21101;-61
2021/11/21 00:40:49;;;;;;;4.97;2.22;;;;;;;8.59;76.63;101155.84;1964680;73;21059;-61
2021/11/21 00:43:17;;;;;;;8.08;2.33;;;;;;;8.57;76.63;101156.80;1964694;73;21106;-61
2021/11/21 00:45:46;;;;;;;6.75;2.22;;;;;;;8.54;76.60;101156.86;1964677;73;21205;-62
2021/11/21 00:48:21;;;;;;;4.87;2.20;;;;;;;8.51;76.53;101151.24;1964991;73;21565;-62
2021/11/21 00:50:46;;;;;;;6.67;3.00;;;;;;;8.49;76.46;101158.30;1964218;73;21032;-62
2021/11/21 00:53:16;;;;;;;6.17;2.25;;;;;;;8.44;76.39;101162.33;1964813;73;21080;-62
2021/11/21 00:55:52;;;;;;;6.97;2.08;;;;;;;8.41;76.39;101157.13;1964547;73;21804;-62
2021/11/21 00:58:17;;;;;;;7.53;2.35;;;;;;;8.38;76.37;101159.82;1963872;73;21079;-62
2021/11/21 01:00:49;;;;;;;8.75;2.92;;;;;;;8.36;76.27;101166.87;1964713;73;21436;-62
2021/11/21 01:03:21;;;;;;;13.18;4.40;;;;;;;8.33;76.12;101165.62;1964813;73;21001;-62
2021/11/21 01:05:50;;;;;;;13.28;3.37;;;;;;;8.26;76.19;101173.20;1964883;73;21020;-62
2021/11/21 01:08:20;;;;;;;9.95;3.17;;;;;;;8.18;76.37;101173.84;1964888;73;21052;-61
2021/11/21 01:10:52;;;;;;;9.30;3.83;;;;;;;8.10;76.48;101180.12;1964988;73;21024;-61
2021/11/21 01:13:21;;;;;;;12.88;3.45;;;;;;;8.03;76.62;101179.83;1964901;73;21471;-62
2021/11/21 01:15:51;;;;;;;13.43;4.83;;;;;;;7.96;76.67;101180.00;1964920;73;21055;-61
2021/11/21 01:18:20;;;;;;;11.33;4.42;;;;;;;7.86;76.89;101186.75;1964867;73;21082;-62
2021/11/21 01:20:50;;;;;;;15.90;5.45;;;;;;;7.81;77.18;101190.36;1964898;73;21095;-62
2021/11/21 01:23:19;;;;;;;11.00;4.10;;;;;;;7.77;77.34;101188.70;1964850;73;21478;-61
2021/11/21 01:25:48;;;;;;;11.63;4.33;;;;;;;7.70;77.48;101195.36;1964808;73;21512;-61
2021/11/21 01:28:17;;;;;;;15.40;4.75;;;;;;;7.63;77.49;101196.37;1964839;73;21467;-61
2021/11/21 01:30:46;;;;;;;9.05;3.85;;;;;;;7.58;77.53;101199.55;1964866;73;21479;-61
2021/11/21 01:33:16;;;;;;;6.05;4.00;;;;;;;7.49;77.49;101197.96;1964743;73;21596;-62
2021/11/21 01:35:45;;;;;;;10.03;3.62;;;;;;;7.41;77.64;101201.15;1964816;73;21481;-62
2021/11/21 01:38:14;;;;;;;8.95;3.00;;;;;;;7.33;77.70;101192.13;1964887;73;21130;-62
2021/11/21 01:40:43;;;;;;;13.30;4.00;;;;;;;7.28;77.89;101201.82;1964856;73;21078;-62
2021/11/21 01:43:13;;;;;;;12.65;4.83;;;;;;;7.19;78.00;101209.84;1965015;73;21090;-62
2021/11/21 01:45:43;;;;;;;8.85;4.42;;;;;;;7.16;78.26;101209.91;1964864;73;21020;-62
2021/11/21 01:48:12;;;;;;;12.63;5.05;;;;;;;7.14;78.31;101223.03;1964994;73;21125;-62
2021/11/21 01:50:44;;;;;;;10.70;4.50;;;;;;;7.14;78.44;101218.25;1964845;73;21037;-62
2021/11/21 01:53:13;;;;;;;9.78;4.53;;;;;;;7.14;78.50;101219.56;1964862;73;21138;-62
2021/11/21 01:55:45;;;;;;;13.72;6.45;;;;;;;7.13;78.71;101220.44;1964978;73;21040;-62
2021/11/21 01:58:14;;;;;;;11.70;4.72;;;;;;;7.10;78.77;101223.09;1964709;73;21479;-62
2021/11/21 02:00:45;;;;;;;15.80;4.45;;;;;;;7.08;78.70;101227.50;1964844;73;21086;-62
2021/11/21 02:03:14;;;;;;;11.03;4.53;;;;;;;7.05;78.78;101232.80;1964839;73;21020;-62
2021/11/21 02:05:43;;;;;;;13.15;5.25;;;;;;;7.01;78.83;101233.72;1964832;73;21044;-62
2021/11/21 02:08:12;;;;;;;12.93;4.90;;;;;;;6.99;78.95;101238.13;1964957;73;21097;-62
2021/11/21 02:10:42;;;;;;;13.43;4.45;;;;;;;6.96;79.00;101239.91;1964689;73;21086;-62
2021/11/21 02:13:11;;;;;;;15.68;5.00;;;;;;;6.95;78.92;101248.66;1964757;73;21016;-62
2021/11/21 02:15:44;;;;;;;12.20;4.90;;;;;;;6.95;79.00;101256.52;1964810;73;21475;-63
2021/11/21 02:18:13;;;;;;;10.38;3.92;;;;;;;6.90;78.87;101270.12;1964937;73;20996;-63
2021/11/21 02:20:44;;;;;;;13.43;4.97;;;;;;;6.86;78.86;101267.13;1964798;73;21032;-63
2021/11/21 02:23:13;;;;;;;9.75;4.22;;;;;;;6.83;79.27;101267.17;1964693;73;21094;-62
2021/11/21 02:25:42;;;;;;;8.03;4.55;;;;;;;6.85;79.39;101265.39;1964827;73;21049;-62
2021/11/21 02:28:11;;;;;;;10.43;5.03;;;;;;;6.81;79.46;101259.79;1964804;73;21471;-62
2021/11/21 02:30:41;;;;;;;12.53;4.50;;;;;;;6.80;79.52;101263.28;1964816;73;21478;-62
2021/11/21 02:33:13;;;;;;;25.92;5.15;;;;;;;6.76;79.46;101262.91;1964946;73;21090;-62
2021/11/21 02:35:44;;;;;;;12.60;5.03;;;;;;;6.76;79.40;101266.38;1964727;73;21055;-62
2021/11/21 02:38:15;;;;;;;14.50;5.47;;;;;;;6.73;79.51;101268.18;1964808;73;21025;-62
2021/11/21 02:40:44;;;;;;;12.53;4.20;;;;;;;6.74;79.50;101272.54;1964774;73;21097;-62
2021/11/21 02:43:13;;;;;;;15.50;4.92;;;;;;;6.73;79.46;101266.88;1964835;73;21056;-61
2021/11/21 02:45:42;;;;;;;18.40;4.78;;;;;;;6.72;79.42;101266.02;1964725;73;21052;-62
2021/11/21 02:48:11;;;;;;;26.95;6.47;;;;;;;6.67;79.35;101266.52;1964571;73;21072;-63
2021/11/21 02:50:40;;;;;;;17.87;5.95;;;;;;;6.66;79.29;101267.84;1964779;73;21514;-62
2021/11/21 02:53:09;;;;;;;19.48;7.58;;;;;;;6.64;79.20;101268.31;1964884;73;21043;-63
2021/11/21 02:55:38;;;;;;;15.72;7.45;;;;;;;6.60;79.27;101267.48;1964916;73;21428;-62
2021/11/21 02:58:07;;;;;;;21.35;7.95;;;;;;;6.56;79.18;101274.52;1964802;73;21366;-63
2021/11/21 03:00:37;;;;;;;20.37;9.35;;;;;;;6.55;79.13;101275.42;1964736;73;21491;-63
2021/11/21 03:03:06;;;;;;;16.80;9.60;;;;;;;6.49;79.13;101279.86;1964774;73;21059;-62
2021/11/21 03:05:36;;;;;;;15.72;9.45;;;;;;;6.44;79.12;101285.17;1964794;73;21094;-63
2021/11/21 03:08:06;;;;;;;21.05;8.58;;;;;;;6.42;79.12;101281.71;1964862;73;21028;-63
2021/11/21 03:10:36;;;;;;;20.95;8.83;;;;;;;6.37;79.13;101283.52;1964880;73;21086;-62
2021/11/21 03:13:08;;;;;;;14.75;6.83;;;;;;;6.32;79.09;101290.55;1964719;73;21113;-63
2021/11/21 03:15:37;;;;;;;14.10;9.10;;;;;;;6.29;79.12;101296.69;1964793;73;20985;-62
2021/11/21 03:18:06;;;;;;;16.30;10.55;;;;;;;6.27;79.10;101300.19;1964773;73;21423;-62
2021/11/21 03:20:38;;;;;;;14.35;7.70;;;;;;;6.24;79.16;101302.87;1965085;73;21432;-63
2021/11/21 03:23:08;;;;;;;12.65;6.00;;;;;;;6.19;79.11;101305.52;1964885;73;21130;-62
2021/11/21 03:25:37;;;;;;;11.20;5.80;;;;;;;6.13;79.15;101310.83;1964679;73;21149;-64
2021/11/21 03:28:06;;;;;;;12.88;5.65;;;;;;;6.06;79.23;101309.17;1964793;73;21111;-62
2021/11/21 03:30:35;;;;;;;12.10;5.78;;;;;;;6.05;79.32;101312.65;1964924;73;21122;-62
2021/11/21 03:33:04;;;;;;;15.55;9.73;;;;;;;6.05;79.30;101315.27;1964810;73;21478;-62
2021/11/21 03:35:33;;;;;;;19.35;12.37;;;;;;;6.02;79.30;101319.24;1964756;73;21107;-62
2021/11/21 03:38:03;;;;;;;14.47;7.42;;;;;;;6.01;79.25;101323.58;1964891;73;21084;-63
2021/11/21 03:40:32;;;;;;;13.48;6.37;;;;;;;6.00;79.61;101325.79;1964757;73;21097;-63
2021/11/21 03:43:02;;;;;;;13.83;5.85;;;;;;;5.99;79.67;101333.19;1964745;73;21576;-62
2021/11/21 03:45:31;;;;;;;15.13;7.28;;;;;;;5.93;79.74;101328.01;1964930;73;21145;-64
2021/11/21 03:48:00;;;;;;;9.08;5.92;;;;;;;5.88;79.72;101330.66;1964760;73;21209;-64
2021/11/21 03:50:29;;;;;;;12.93;6.22;;;;;;;5.85;79.81;101341.61;1964845;73;21009;-62
2021/11/21 03:52:58;;;;;;;12.05;5.78;;;;;;;5.76;79.61;101348.64;1964801;73;21087;-61
2021/11/21 03:55:27;;;;;;;16.90;6.50;;;;;;;5.71;79.61;101346.50;1964928;73;21021;-61
2021/11/21 03:57:56;;;;;;;15.90;6.72;;;;;;;5.65;79.52;101353.55;1964896;73;21471;-60
2021/11/21 04:00:27;;;;;;;16.85;6.97;;;;;;;5.58;79.55;101354.03;1964721;73;21495;-60
2021/11/21 04:02:56;;;;;;;13.03;5.90;;;;;;;5.52;79.81;101358.87;1964719;73;21030;-60
2021/11/21 04:05:26;;;;;;;14.68;6.72;;;;;;;5.47;79.92;101358.48;1964623;73;21537;-61
2021/11/21 04:07:56;;;;;;;17.80;7.55;;;;;;;5.45;79.95;101355.87;1965092;73;21509;-60
2021/11/21 04:10:25;;;;;;;13.60;5.87;;;;;;;5.41;79.76;101365.92;1964772;73;21028;-61
2021/11/21 04:12:54;;;;;;;17.17;6.37;;;;;;;5.38;79.84;101364.63;1964753;73;21549;-60
2021/11/21 04:15:23;;;;;;;17.52;6.85;;;;;;;5.34;79.75;101366.40;1964766;73;21471;-60
2021/11/21 04:17:51;;;;;;;14.93;6.45;;;;;;;5.28;79.73;101358.62;1964655;73;21107;-61
2021/11/21 04:20:21;;;;;;;12.05;5.70;;;;;;;5.23;79.84;101359.09;1964839;73;21040;-61
2021/11/21 04:22:50;;;;;;;13.08;8.20;;;;;;;5.22;79.90;101365.20;1964750;73;21082;-60
2021/11/21 04:25:19;;;;;;;14.68;8.30;;;;;;;5.19;79.84;101369.13;1964756;73;21052;-61
2021/11/21 04:27:47;;;;;;;14.05;7.67;;;;;;;5.15;79.83;101371.34;1964859;73;21557;-60
2021/11/21 04:30:17;;;;;;;13.10;7.42;;;;;;;5.11;79.83;101372.20;1964795;73;21099;-61
2021/11/21 04:32:47;;;;;;;18.40;9.05;;;;;;;5.08;79.82;101376.17;1964750;73;21459;-61
2021/11/21 04:35:19;;;;;;;18.85;6.90;;;;;;;5.05;79.81;101369.65;1964781;73;21129;-61
2021/11/21 04:37:49;;;;;;;20.77;8.95;;;;;;;5.02;79.81;101379.23;1964755;73;21074;-61
2021/11/21 04:40:18;;;;;;;17.55;8.38;;;;;;;4.99;79.87;101372.72;1964808;73;21060;-61
2021/11/21 04:42:48;;;;;;;12.53;5.40;;;;;;;4.99;79.89;101375.33;1964721;73;21098;-62
2021/11/21 04:45:17;;;;;;;10.50;5.92;;;;;;;4.96;79.85;101380.59;1964756;73;21064;-61
2021/11/21 04:47:46;;;;;;;13.30;5.85;;;;;;;4.94;79.77;101381.03;1964697;73;21487;-61
2021/11/21 04:50:15;;;;;;;13.90;5.72;;;;;;;4.93;79.71;101385.81;1967076;73;21247;-61
2021/11/21 04:52:44;;;;;;;17.98;6.12;;;;;;;4.94;79.66;101393.19;1968459;73;21044;-61
2021/11/21 04:55:14;;;;;;;20.82;6.37;;;;;;;4.94;79.70;101400.61;1968460;73;21036;-61
2021/11/21 04:57:43;;;;;;;14.78;5.00;;;;;;;4.97;79.87;101403.18;1968415;73;21463;-61
2021/11/21 05:00:18;;;;;;;11.55;6.00;;;;;;;4.99;79.77;101397.51;1968426;73;21447;-61
2021/11/21 05:02:49;;;;;;;15.63;6.08;;;;;;;5.05;79.91;101402.27;1968353;73;21133;-61
2021/11/21 05:05:21;;;;;;;14.98;5.70;;;;;;;5.26;80.05;101409.13;1968379;73;21083;-60
2021/11/21 05:07:50;;;;;;;11.20;5.80;;;;;;;5.53;79.95;101414.58;1968266;73;21125;-61
2021/11/21 05:10:20;;;;;;;11.80;6.30;;;;;;;5.78;79.79;101411.34;1968400;73;21012;-60
2021/11/21 05:12:50;;;;;;;11.88;5.45;;;;;;;6.04;79.50;101412.45;1968399;73;21098;-61
2021/11/21 05:15:22;;;;;;;13.40;6.00;;;;;;;6.28;78.96;101419.63;1968423;73;21636;-62
2021/11/21 05:17:50;;;;;;;11.60;5.65;;;;;;;6.46;77.63;101421.19;1968307;73;21040;-60
2021/11/21 05:20:19;;;;;;;11.40;5.00;;;;;;;6.80;77.18;101432.11;1968290;73;21584;-61
2021/11/21 05:22:49;;;;;;;13.48;5.72;;;;;;;7.19;76.61;101428.54;1968483;73;21068;-61
2021/11/21 05:25:18;;;;;;;10.38;5.22;;;;;;;7.53;76.08;101442.48;1968494;73;21004;-60
2021/11/21 05:27:50;;;;;;;10.80;5.50;;;;;;;7.89;75.56;101444.08;1968423;73;21020;-60
2021/11/21 05:30:21;;;;;;;10.13;5.30;;;;;;;8.12;74.96;101448.50;1968546;73;21071;-60
2021/11/21 05:32:50;;;;;;;12.28;6.50;;;;;;;8.54;74.22;101457.39;1968325;73;21035;-62
2021/11/21 05:35:19;;;;;;;9.00;4.78;;;;;;;8.91;72.37;101452.72;1968343;73;21551;-62
2021/11/21 05:37:51;;;;;;;13.75;6.00;;;;;;;9.01;71.15;101451.65;1968398;73;21067;-62
2021/11/21 05:40:21;;;;;;;15.58;5.58;;;;;;;9.33;70.86;101459.27;1968389;73;21071;-62
2021/11/21 05:42:52;;;;;;;12.68;5.75;;;;;;;9.89;70.09;101461.48;1968320;73;21166;-62
2021/11/21 05:45:20;;;;;;;16.67;7.22;;;;;;;10.59;69.84;101460.13;1968308;73;21106;-62
2021/11/21 05:47:50;;;;;;;16.25;10.25;;;;;;;11.30;69.20;101459.39;1968376;73;21451;-62
2021/11/21 05:50:18;;;;;;;21.15;13.62;;;;;;;12.01;68.50;101462.43;1968382;73;21123;-62
2021/11/21 05:52:49;;;;;;;23.47;12.82;;;;;;;12.55;67.61;101464.09;1968512;73;21021;-62
2021/11/21 05:55:19;;;;;;;17.55;10.50;;;;;;;13.11;66.91;101466.88;1968667;73;21028;-62
2021/11/21 05:57:48;;;;;;;18.15;8.58;;;;;;;13.60;65.63;101472.08;1968547;73;21055;-63
2021/11/21 06:00:20;;;;;;;16.07;7.28;;;;;;;13.96;64.01;101473.70;1968515;73;21533;-62
2021/11/21 06:02:49;;;;;;;13.93;6.40;;;;;;;14.17;62.08;101471.92;1968620;73;21087;-62
2021/11/21 06:05:19;;;;;;;17.57;6.87;;;;;;;14.28;60.60;101472.33;1968525;73;21816;-62
2021/11/21 06:07:48;;;;;;;12.05;7.45;;;;;;;14.65;59.82;101472.55;1968651;73;21032;-64
2021/11/21 06:10:17;;;;;;;13.72;7.08;;;;;;;14.81;57.77;101468.28;1968401;73;21439;-65
2021/11/21 06:12:46;;;;;;;15.63;6.33;;;;;;;14.82;55.16;101474.44;1968529;73;21145;-64
2021/11/21 06:15:15;;;;;;;13.28;6.10;;;;;;;14.99;55.79;101480.30;1968610;73;21439;-64
2021/11/21 06:17:45;;;;;;;14.13;5.85;;;;;;;14.90;54.13;101474.94;1968518;73;21051;-64
2021/11/21 06:20:14;;;;;;;13.45;4.85;;;;;;;15.07;54.67;101476.84;1968624;73;21549;-64
2021/11/21 06:22:43;;;;;;;12.35;6.10;;;;;;;15.68;54.69;101481.48;1968591;73;21459;-64
2021/11/21 06:25:13;;;;;;;15.78;7.05;;;;;;;16.15;54.33;101481.81;1968734;73;21524;-64
2021/11/21 06:27:41;;;;;;;20.05;6.97;;;;;;;16.68;53.98;101477.80;1968616;73;21459;-64
2021/11/21 06:30:11;;;;;;;14.70;6.67;;;;;;;17.08;53.09;101472.56;1968545;73;21035;-64
2021/11/21 06:32:40;;;;;;;14.35;6.45;;;;;;;17.36;51.44;101474.55;1968508;73;21091;-64
2021/11/21 06:35:10;;;;;;;14.95;5.28;;;;;;;17.63;51.25;101476.61;1968601;73;21583;-66
2021/11/21 06:37:39;;;;;;;15.93;6.42;;;;;;;17.59;49.88;101464.39;1968386;73;21553;-64
2021/11/21 06:40:08;;;;;;;20.77;7.78;;;;;;;17.86;49.81;101461.13;1968508;73;21106;-64
2021/11/21 06:42:37;;;;;;;14.75;7.03;;;;;;;17.85;47.61;101460.25;1968493;73;21110;-64
2021/11/21 06:45:07;;;;;;;14.00;5.53;;;;;;;17.86;47.05;101454.47;1968450;73;21043;-65
2021/11/21 06:47:36;;;;;;;13.95;5.55;;;;;;;18.21;47.65;101448.87;1968547;73;21012;-63
2021/11/21 06:50:11;;;;;;;11.73;4.40;;;;;;;18.92;47.56;101445.40;1968533;73;21113;-63
2021/11/21 06:52:42;;;;;;;10.65;4.08;;;;;;;19.65;47.27;101445.14;1968495;73;21099;-63
2021/11/21 06:55:13;;;;;;;10.88;4.33;;;;;;;20.38;46.25;101441.61;1968474;73;21036;-63
2021/11/21 06:57:42;;;;;;;15.40;5.00;;;;;;;20.93;45.61;101440.92;1968617;73;21114;-63
2021/11/21 07:00:13;;;;;;;9.08;3.67;;;;;;;21.45;44.39;101434.49;1968469;73;21114;-65
2021/11/21 07:02:43;;;;;;;9.85;4.08;;;;;;;21.79;43.70;101431.95;1968440;73;21020;-64
2021/11/21 07:05:12;;;;;;;9.43;3.83;;;;;;;21.94;42.78;101444.19;1968468;73;21491;-64
2021/11/21 07:07:42;;;;;;;12.33;4.53;;;;;;;21.85;42.37;101436.84;1968503;73;21113;-64
2021/11/21 07:10:12;;;;;;;11.30;3.30;;;;;;;22.02;42.34;101439.58;1968653;73;21028;-63
2021/11/21 07:12:41;;;;;;;10.48;4.22;;;;;;;22.28;42.03;101438.97;1968487;73;21020;-65
2021/11/21 07:15:11;;;;;;;9.75;3.40;;;;;;;22.63;41.66;101444.75;1968448;73;21064;-63
2021/11/21 07:17:40;;;;;;;10.23;3.55;;;;;;;22.92;40.51;101441.55;1968588;73;21091;-63
2021/11/21 07:20:15;;;;;;;8.93;3.02;;;;;;;22.63;39.50;101443.41;1968523;73;21102;-63
2021/11/21 07:22:40;;;;;;;8.50;2.70;;;;;;;22.47;39.81;101449.61;1967732;73;21107;-63
2021/11/21 07:25:09;;;;;;;13.83;3.40;;;;;;;22.50;39.46;101449.34;1968582;73;21102;-63
2021/11/21 07:27:37;;;;;;;7.67;2.42;;;;;;;22.61;39.15;101440.45;1968434;73;21098;-63
2021/11/21 07:30:06;;;;;;;8.70;2.87;;;;;;;22.39;37.78;101438.14;1968570;73;21109;-63
2021/11/21 07:32:35;;;;;;;10.00;2.30;;;;;;;22.68;38.23;101439.00;1968565;73;21518;-64
2021/11/21 07:35:04;;;;;;;10.00;2.80;;;;;;;22.89;37.92;101440.48;1968468;73;21113;-63
2021/11/21 07:37:34;;;;;;;8.78;2.22;;;;;;;23.10;37.35;101441.45;1968510;73;21031;-63
2021/11/21 07:40:04;;;;;;;9.53;2.35;;;;;;;22.99;35.78;101437.41;1958450;73;21067;-63
2021/11/21 07:42:33;;;;;;;10.85;2.52;;;;;;;23.02;36.60;101434.94;1933944;74;21032;-64
2021/11/21 07:45:02;;;;;;;9.50;2.50;;;;;;;23.43;36.31;101435.64;1933906;74;21101;-64
2021/11/21 07:47:30;;;;;;;5.40;1.90;;;;;;;23.65;35.95;101434.70;1933790;74;21043;-65
2021/11/21 07:49:59;;;;;;;4.35;1.70;;;;;;;23.50;35.98;101427.43;1933807;74;21122;-65
2021/11/21 07:52:28;;;;;;;5.90;1.80;;;;;;;22.43;35.00;101420.82;1933610;74;21056;-65
2021/11/21 07:54:57;;;;;;;8.45;2.12;;;;;;;21.71;35.17;101412.94;1933808;74;21124;-65
2021/11/21 07:57:25;;;;;;;6.17;1.57;;;;;;;21.55;36.00;101415.91;1933912;74;21125;-65
2021/11/21 07:59:54;;;;;;;8.48;2.47;;;;;;;22.27;35.78;101415.78;1933942;74;21118;-64
2021/11/21 08:02:23;;;;;;;4.90;1.57;;;;;;;22.70;34.67;101416.91;1933885;74;21121;-64
2021/11/21 08:04:52;;;;;;;8.68;1.70;;;;;;;22.83;34.45;101406.05;1933676;74;21064;-66
2021/11/21 08:07:21;;;;;;;9.20;2.17;;;;;;;23.21;33.95;101410.18;1933882;74;21043;-64
2021/11/21 08:09:50;;;;;;;6.97;1.87;;;;;;;23.43;33.57;101406.58;1933861;74;21071;-64
2021/11/21 08:12:19;;;;;;;5.17;1.62;;;;;;;23.70;32.24;101415.52;1933750;74;21470;-64
2021/11/21 08:14:48;;;;;;;5.47;1.55;;;;;;;23.65;30.86;101402.45;1933784;74;21059;-65
2021/11/21 08:17:17;;;;;;;7.20;1.65;;;;;;;23.48;31.60;101403.87;1933744;74;21028;-66
2021/11/21 08:19:47;;;;;;;9.05;2.00;;;;;;;23.74;32.53;101402.64;1933948;74;21567;-65
2021/11/21 08:22:15;;;;;;;7.87;1.35;;;;;;;24.40;32.14;101393.84;1933807;74;21114;-66
2021/11/21 08:24:45;;;;;;;5.83;1.47;;;;;;;24.85;31.40;101391.28;1933645;74;21067;-66
2021/11/21 08:27:14;;;;;;;8.58;1.77;;;;;;;25.21;30.94;101387.59;1933910;74;21031;-66
2021/11/21 08:29:43;;;;;;;5.30;1.25;;;;;;;25.30;29.55;101386.78;1933771;74;21035;-65
2021/11/21 08:32:12;;;;;;;9.05;1.72;;;;;;;25.48;30.27;101387.45;1933764;74;21064;-66
2021/11/21 08:34:41;;;;;;;6.22;1.90;;;;;;;25.79;29.79;101393.03;1933908;74;21019;-66
2021/11/21 08:37:10;;;;;;;6.85;1.37;;;;;;;24.83;28.38;101389.22;1933872;74;21152;-65
2021/11/21 08:39:39;;;;;;;6.70;1.60;;;;;;;24.16;29.57;101397.30;1933849;74;21035;-66
2021/11/21 08:42:08;;;;;;;5.15;1.32;;;;;;;24.17;28.60;101385.07;1933754;74;21042;-66
2021/11/21 08:44:37;;;;;;;6.25;1.32;;;;;;;23.82;29.28;101383.56;1933651;74;21118;-66
2021/11/21 08:47:06;;;;;;;4.97;1.70;;;;;;;23.76;29.25;101379.20;1933827;74;21040;-65
2021/11/21 08:49:35;;;;;;;7.78;2.02;;;;;;;24.51;29.79;101375.88;1933820;74;21097;-65
2021/11/21 08:52:05;;;;;;;5.50;2.10;;;;;;;25.38;29.28;101378.02;1932964;74;21129;-66
2021/11/21 08:54:34;;;;;;;6.70;2.20;;;;;;;25.94;29.09;101367.00;1930223;74;21063;-65
2021/11/21 08:57:03;;;;;;;8.45;2.08;;;;;;;25.65;26.80;101371.89;1930121;74;21067;-66
2021/11/21 08:59:32;;;;;;;7.25;1.82;;;;;;;24.74;27.91;101361.77;1930207;74;21055;-66
2021/11/21 09:02:01;;;;;;;5.78;1.75;;;;;;;24.59;28.70;101362.14;1930231;74;21098;-66
2021/11/21 09:04:29;;;;;;;5.85;1.67;;;;;;;24.43;28.21;101357.72;1930209;74;21451;-67
2021/11/21 09:06:58;;;;;;;9.18;3.37;;;;;;;24.01;29.14;101357.78;1930266;74;21047;-66
2021/11/21 09:09:27;;;;;;;8.28;1.70;;;;;;;24.03;29.18;101364.76;1930118;74;21130;-67
2021/11/21 09:11:56;;;;;;;8.08;2.50;;;;;;;24.22;29.35;101357.28;1930294;74;21474;-66
2021/11/21 09:14:26;;;;;;;7.85;1.72;;;;;;;23.82;29.60;101362.56;1930254;74;21552;-67
2021/11/21 09:16:55;;;;;;;6.42;1.72;;;;;;;24.05;29.87;101355.19;1930336;74;21032;-66
2021/11/21 09:19:24;;;;;;;5.97;1.72;;;;;;;23.73;29.79;101357.94;1930171;74;21105;-67
2021/11/21 09:21:53;;;;;;;6.62;2.15;;;;;;;24.00;30.32;101366.36;1930173;74;21129;-67
2021/11/21 09:24:21;;;;;;;4.78;1.75;;;;;;;24.13;29.46;101351.35;1930256;74;21051;-66
2021/11/21 09:26:50;;;;;;;7.83;2.62;;;;;;;24.28;29.89;101359.42;1930301;74;21193;-67
2021/11/21 09:29:19;;;;;;;3.42;1.22;;;;;;;24.27;30.15;101360.42;1930317;74;21533;-66
2021/11/21 09:31:48;;;;;;;7.75;2.30;;;;;;;24.30;30.77;101345.00;1930323;74;21502;-66
2021/11/21 09:34:17;;;;;;;8.88;2.60;;;;;;;23.48;31.93;101351.45;1930595;74;21053;-66
2021/11/21 09:36:45;;;;;;;7.00;1.90;;;;;;;21.84;33.84;101352.05;1930369;74;21012;-66
2021/11/21 09:39:14;;;;;;;7.12;1.62;;;;;;;21.49;34.88;101353.41;1930332;74;21109;-66
2021/11/21 09:41:44;;;;;;;11.18;2.42;;;;;;;21.83;34.56;101350.33;1930565;74;21047;-66
2021/11/21 09:44:15;;;;;;;10.13;3.22;;;;;;;22.24;34.38;101346.24;1930314;74;21059;-66
2021/11/21 09:46:44;;;;;;;10.63;2.58;;;;;;;22.05;34.29;101352.70;1930408;74;21071;-66
2021/11/21 09:49:15;;;;;;;5.30;2.05;;;;;;;22.31;34.25;101346.16;1930173;74;21067;-68
2021/11/21 09:51:45;;;;;;;8.43;2.90;;;;;;;22.29;34.27;101346.77;1930441;74;21015;-63
2021/11/21 09:54:18;;;;;;;10.25;2.55;;;;;;;22.02;34.82;101350.24;1930375;74;21067;-62
2021/11/21 09:56:47;;;;;;;7.53;2.00;;;;;;;22.28;34.67;101355.81;1930298;74;21138;-62
2021/11/21 09:59:18;;;;;;;5.83;2.27;;;;;;;22.31;34.47;101346.16;1930443;74;21122;-62
2021/11/21 10:01:46;;;;;;;5.15;2.00;;;;;;;22.21;34.59;101343.82;1925635;74;21047;-62
2021/11/21 10:04:18;;;;;;;5.65;1.92;;;;;;;22.55;34.25;101349.20;1930290;74;21059;-62
2021/11/21 10:06:46;;;;;;;7.67;2.00;;;;;;;22.22;34.71;101340.14;1930366;74;21052;-62
2021/11/21 10:09:20;;;;;;;10.03;2.47;;;;;;;21.51;35.51;101332.71;1930276;74;21129;-62
2021/11/21 10:12:04;;;;;;;6.40;1.80;;;;;;;21.16;36.32;101329.48;1930323;74;21028;-62
2021/11/21 10:14:36;;;;;;;10.45;1.42;;;;;;;21.41;36.06;101328.48;1930203;74;21044;-62
2021/11/21 10:17:08;;;;;;;8.43;2.00;;;;;;;20.76;36.85;101333.25;1926395;74;21067;-62
2021/11/21 10:19:37;;;;;;;8.30;2.20;;;;;;;20.72;37.23;101329.09;1928137;74;21072;-62
2021/11/21 10:22:06;;;;;;;3.98;1.70;;;;;;;21.70;35.58;101323.62;1930316;74;21511;-62
2021/11/21 10:24:35;;;;;;;7.75;2.12;;;;;;;22.32;34.70;101325.08;1930207;74;21055;-62
2021/11/21 10:27:15;;;;;;;6.33;1.17;;;;;;;22.47;34.72;101327.52;1930282;74;21032;-62
2021/11/21 10:29:48;;;;;;;5.42;1.92;;;;;;;23.08;34.23;101326.56;1930269;74;21039;-62
2021/11/21 10:32:33;;;;;;;8.48;2.17;;;;;;;22.45;34.54;101318.74;1930255;74;21490;-62
2021/11/21 10:35:07;;;;;;;6.37;1.85;;;;;;;22.22;34.90;101325.39;1930158;74;21020;-62
2021/11/21 10:37:39;;;;;;;7.15;2.00;;;;;;;22.18;34.73;101328.80;1930301;74;21035;-61
2021/11/21 10:40:16;;;;;;;7.20;2.17;;;;;;;22.43;34.48;101306.78;1930314;74;21044;-61
2021/11/21 10:42:50;;;;;;;5.10;1.70;;;;;;;21.95;34.71;101317.22;1930338;74;21544;-61
2021/11/21 10:45:26;;;;;;;15.40;6.10;;;;;;;21.13;35.93;101320.33;1930188;74;21067;-60
2021/11/21 10:47:57;;;;;;;14.38;4.65;;;;;;;19.80;38.25;101330.22;1930366;74;21043;-61
2021/11/21 10:50:34;;;;;;;11.00;3.65;;;;;;;20.53;37.51;101331.38;1930472;74;21044;-61
2021/11/21 10:53:07;;;;;;;7.97;3.02;;;;;;;20.29;37.53;101334.83;1930368;74;21462;-60
2021/11/21 10:55:36;;;;;;;8.68;2.00;;;;;;;19.59;38.38;101347.20;1933917;74;21058;-62
2021/11/21 10:58:16;;;;;;;6.92;2.25;;;;;;;18.39;40.28;101350.44;1933808;74;21599;-60
2021/11/21 11:00:48;;;;;;;4.37;1.80;;;;;;;17.59;42.17;101351.70;1933791;74;21126;-59
2021/11/21 11:03:22;;;;;;;7.58;2.42;;;;;;;17.91;42.15;101349.84;1932272;74;21134;-60
2021/11/21 11:05:51;;;;;;;5.28;1.60;;;;;;;17.35;43.23;101364.16;1933807;74;21351;-60
2021/11/21 11:08:29;;;;;;;7.47;1.80;;;;;;;16.69;44.45;101363.39;1933862;74;21130;-60
2021/11/21 11:11:01;;;;;;;8.08;1.85;;;;;;;16.21;45.68;101356.64;1933841;74;21105;-60
2021/11/21 11:13:30;;;;;;;8.10;2.12;;;;;;;16.21;45.79;101358.41;1933792;74;21067;-60
2021/11/21 11:16:00;;;;;;;9.90;1.40;;;;;;;16.74;45.19;101352.48;1933828;74;21133;-60
2021/11/21 11:18:30;;;;;;;5.45;1.52;;;;;;;16.71;44.50;101353.97;1933827;74;21497;-59
2021/11/21 11:20:58;;;;;;;4.70;1.42;;;;;;;16.55;44.44;101357.95;1933898;74;21138;-60
2021/11/21 11:23:27;;;;;;;6.00;1.52;;;;;;;17.47;42.06;101358.62;1933839;74;21094;-60
2021/11/21 11:25:59;;;;;;;4.80;1.98;;;;;;;18.68;40.47;101355.73;1933752;74;21467;-60
2021/11/21 11:28:33;;;;;;;4.55;1.50;;;;;;;19.67;39.18;101359.06;1933755;74;21540;-59
2021/11/21 11:31:04;;;;;;;7.60;1.42;;;;;;;20.35;38.14;101361.12;1933031;74;21063;-61
2021/11/21 11:33:39;;;;;;;7.87;2.15;;;;;;;20.76;37.73;101361.84;1930037;74;21530;-60
2021/11/21 11:36:20;;;;;;;5.42;1.42;;;;;;;20.61;36.94;101370.49;1933839;74;21117;-60